»·PEaware :: N822VA KONT-KVNY

N822VA :: KONT-KVNY

FLIGHT INFORMATION

Flight Status: Arrived
Operator: Privately registered:
United States
More flights under this callsign
Pilot: Felix V. (26365)
Aircraft: CESSNA 172 SKYHAWK
(C172)
More flights by this aircraft type
Origin: KONT Ontario Intl
United States
Destination: KVNY Van Nuys
United States
More flights between these airports :: More routes between these airports
Route: PDZ V186 VNY
File this flight plan on PilotEdge
Remarks:
Altitude:
(Current/Filed)
6,000ft
Speed:
(Current/Filed)
120kts
Departed: 09-Feb-21 12:31 PM
Arrived: 09-Feb-21 01:38 PM
Distance/Time
Traveled:
6755nm/1:06
Distance/Time
To Go:
Arrived

Flight Plot

Page will automatically refresh every two minutes.


Map Options




Map Legend


Flown Route
Filed Route
Departure Airport
Arrival Airport
Navaid (VOR, NDB)
Fix

Horizontal Profiles

Position Reports

Time Latitude Longitude Heading Altitude Ground
Speed
09-Feb-21 12:14 34.052791 -117.612233 179 940ft 0kts
09-Feb-21 12:15 34.052791 -117.612233 179 940ft 0kts
09-Feb-21 12:16 34.052791 -117.612233 179 940ft 0kts
09-Feb-21 12:17 34.052791 -117.612233 179 940ft 0kts
09-Feb-21 12:18 34.052791 -117.612233 179 940ft 0kts
09-Feb-21 12:19 34.052791 -117.612233 179 940ft 0kts
09-Feb-21 12:20 34.052791 -117.612233 179 940ft 0kts
09-Feb-21 12:21 34.052791 -117.612233 179 940ft 0kts
09-Feb-21 12:22 34.052791 -117.612233 179 940ft 0kts
09-Feb-21 12:23 34.052771 -117.612235 190 940ft 3kts
09-Feb-21 12:24 34.053868 -117.607705 91 937ft 40kts
09-Feb-21 12:25 34.053881 -117.594660 87 934ft 15kts
09-Feb-21 12:26 34.053879 -117.586579 89 930ft 39kts
09-Feb-21 12:27 34.054120 -117.582794 25 930ft 0kts
09-Feb-21 12:28 34.054120 -117.582794 25 930ft 0kts
09-Feb-21 12:29 34.054414 -117.582714 0 930ft 11kts
09-Feb-21 12:30 34.055058 -117.600608 271 1258ft 80kts
09-Feb-21 12:31 34.055738 -117.630304 271 1888ft 94kts
09-Feb-21 12:32 34.056454 -117.662402 271 2500ft 93kts
09-Feb-21 12:33 34.057130 -117.691013 271 3195ft 78kts
09-Feb-21 12:34 34.057726 -117.716507 271 3844ft 77kts
09-Feb-21 12:35 34.058386 -117.743871 271 4440ft 87kts
09-Feb-21 12:36 34.059086 -117.774748 271 5047ft 95kts
09-Feb-21 12:37 34.059614 -117.807036 271 5644ft 96kts
09-Feb-21 12:38 34.059838 -117.840517 271 6021ft 110kts
09-Feb-21 12:39 34.060120 -117.878526 271 6044ft 115kts
09-Feb-21 12:40 34.060309 -117.912184 271 5960ft 113kts
09-Feb-21 12:41 34.060435 -117.948925 271 5950ft 109kts
09-Feb-21 12:42 34.060687 -117.980046 279 5950ft 108kts
09-Feb-21 12:43 34.066973 -118.006956 292 5951ft 107kts
09-Feb-21 12:44 34.076673 -118.037720 291 5950ft 108kts
09-Feb-21 12:45 34.086958 -118.070701 291 6012ft 105kts
09-Feb-21 12:46 34.097339 -118.104081 291 6018ft 106kts
09-Feb-21 12:47 34.107505 -118.136781 291 6015ft 106kts
09-Feb-21 12:48 34.117715 -118.169628 291 6020ft 107kts
09-Feb-21 12:49 34.127956 -118.202639 291 6015ft 106kts
09-Feb-21 12:50 34.130249 -118.237910 284 6020ft 106kts
09-Feb-21 12:51 34.141995 -118.270633 297 6018ft 106kts
09-Feb-21 12:52 34.153356 -118.301794 295 6023ft 106kts
09-Feb-21 12:53 34.165250 -118.333947 295 6015ft 106kts
09-Feb-21 12:54 34.177276 -118.366496 295 6018ft 106kts
09-Feb-21 12:55 34.190125 -118.401293 294 5618ft 122kts
09-Feb-21 12:56 34.203929 -118.438727 294 5161ft 116kts
09-Feb-21 12:57 34.216609 -118.473117 294 5121ft 110kts
09-Feb-21 12:58 34.225621 -118.507484 255 5119ft 111kts
09-Feb-21 12:59 34.214148 -118.542153 262 4950ft 120kts
09-Feb-21 13:00 34.207309 -118.582900 258 4247ft 125kts
09-Feb-21 13:01 34.199832 -118.623451 247 3613ft 120kts
09-Feb-21 13:02 34.184736 -118.659771 249 3522ft 121kts
09-Feb-21 13:03 34.200761 -118.654417 84 3522ft 123kts
09-Feb-21 13:05 34.200995 -118.615862 91 3451ft 116kts
09-Feb-21 13:06 34.200599 -118.576228 91 2549ft 114kts
09-Feb-21 13:07 34.200205 -118.538150 90 1636ft 105kts
09-Feb-21 13:08 34.199468 -118.503352 87 1465ft 108kts
09-Feb-21 13:09 34.198562 -118.469034 111 2026ft 92kts
09-Feb-21 13:10 34.179334 -118.474107 221 2755ft 96kts
09-Feb-21 13:11 34.161052 -118.494000 222 3649ft 80kts
09-Feb-21 13:12 34.146769 -118.509049 222 4433ft 55kts
09-Feb-21 13:13 34.153384 -118.520803 340 4964ft 59kts
09-Feb-21 13:14 34.172055 -118.527787 340 5217ft 103kts
09-Feb-21 13:15 34.201958 -118.538763 341 5002ft 118kts
09-Feb-21 13:16 34.232629 -118.549759 342 4900ft 107kts
09-Feb-21 13:17 34.261157 -118.559304 345 4957ft 107kts
09-Feb-21 13:18 34.290803 -118.567710 342 4943ft 107kts
09-Feb-21 13:18 34.314699 -118.577048 340 4999ft 112kts
09-Feb-21 13:20 34.350007 -118.589445 350 4978ft 111kts
09-Feb-21 13:21 34.382185 -118.596429 340 4815ft 105kts
09-Feb-21 13:21 34.406246 -118.605546 342 4890ft 108kts
09-Feb-21 13:23 34.438688 -118.593059 25 5037ft 113kts
09-Feb-21 13:23 34.462313 -118.578720 24 5031ft 116kts
09-Feb-21 13:24 34.491871 -118.562115 22 4968ft 115kts
09-Feb-21 13:25 34.521270 -118.546855 21 5008ft 114kts
09-Feb-21 13:26 34.531645 -118.522351 150 5188ft 110kts
09-Feb-21 13:27 34.499272 -118.519276 175 4957ft 121kts
09-Feb-21 13:28 34.467027 -118.515982 177 4780ft 112kts
09-Feb-21 13:29 34.436839 -118.512177 175 4893ft 111kts
09-Feb-21 13:30 34.404539 -118.508551 176 4299ft 117kts
09-Feb-21 13:31 34.372457 -118.505393 178 3821ft 109kts
09-Feb-21 13:32 34.342327 -118.502520 176 3594ft 113kts
09-Feb-21 13:33 34.311051 -118.499612 175 2978ft 113kts
09-Feb-21 13:34 34.280621 -118.497486 179 2273ft 112kts
09-Feb-21 13:35 34.250016 -118.494337 174 1549ft 109kts
09-Feb-21 13:36 34.223938 -118.491647 175 1045ft 77kts
09-Feb-21 13:37 34.207035 -118.490131 173 780ft 14kts
09-Feb-21 13:38 34.206746 -118.489125 86 779ft 0kts
09-Feb-21 13:39 34.206746 -118.489125 86 779ft 0kts
09-Feb-21 13:40 34.209212 -118.488303 354 782ft 22kts
09-Feb-21 13:41 34.210656 -118.487063 292 782ft 0kts
09-Feb-21 13:42 0.000408 0.013975 359 3ft 0kts
09-Feb-21 13:43 0.000408 0.013975 359 3ft 0kts
09-Feb-21 13:44 0.000408 0.013975 359 3ft 0kts
09-Feb-21 13:45 0.000408 0.013975 359 3ft 0kts
09-Feb-21 13:46 0.000408 0.013975 359 3ft 0kts
09-Feb-21 13:47 0.000408 0.013975 359 3ft 0kts
09-Feb-21 13:48 0.000408 0.013975 359 3ft 0kts
09-Feb-21 13:49 0.000408 0.013975 359 3ft 0kts
09-Feb-21 13:50 0.000408 0.013975 359 3ft 0kts
09-Feb-21 13:51 0.000408 0.013975 359 3ft 0kts

Navigation Log

Ident Type
Flight plan parsing failed, navigation log unavailable